Foios, Spain
Current Conditions -  °F | °C
As of 4:00 AM on Wednesday 26 Nov 2014 (Local Time) from LEVC Reporting Station
Few Clouds Few Clouds  
Wind Chill: 57°   Ceiling: Unl
Heat Index: 57°   Visibility: 6mi
Dew Point: 54°   Wind: 6mph
Humidity: 88%   Direction: 290°WNW
Pressure: 29.91"   Gusts: NA
Location:  39.53°N, 0.35°W
Report Text: LEVC 260300Z 29005KT 9999 FEW035 14/12 Q1013 NOSIG
Loading
Personal Weather Stations






























Interactive Weather Map New forecast layout! Learn more

10-Day Weather Forecast

Advertisements
Track Severe Weather on mobile